KSCK/SCK METAR and TAF weather

Enter ICAO airport designator
Station Type Date Time Source
KSCK METAR 2020/07/15 00:55 UTC NOAA

KSCK 150055Z AUTO 30009KT 10SM CLR 33/13 A2980 RMK AO2 SLP090 T03330133


Station Type Date Time Source
KSCK Decoded METAR 2020/07/15 00:55 UTC NOAA

STOCKTON METROPOLITAN AIRPORT , CA, United States (KSCK) 37-54N 121-14W 10M
Jul 14, 2020 - 08:55 PM EDT / 2020.07.15 0055 UTC
Wind: from the WNW (300 degrees) at 10 MPH (9 KT):0
Visibility: 10 mile(s):0
Sky conditions: clear
Temperature: 91.9 F (33.3 C)
Dew Point: 55.9 F (13.3 C)
Relative Humidity: 29%
Pressure (altimeter): 29.8 in. Hg (1009 hPa)
ob: KSCK 150055Z AUTO 30009KT 10SM CLR 33/13 A2980 RMK AO2 SLP090 T03330133
cycle: 1

Station Type Date Time Source
KSCK TAF 2020/07/14 18:40 UTC NOAA

TAF KSCK 141738Z 1418/1518 31006KT P6SM SKC
FM150000 31009KT P6SM SKC
FM150900 34005KT P6SM SKC

Example: see airport list